createdAt,value
2023-02-12T00:01:17.071Z,8.87
2023-02-12T00:03:44.076Z,8.90
2023-02-12T00:06:15.800Z,8.71
2023-02-12T00:08:43.247Z,8.88
2023-02-12T00:11:15.884Z,8.90
2023-02-12T00:13:42.792Z,8.76
2023-02-12T00:16:13.285Z,8.76
2023-02-12T00:18:43.372Z,8.84
2023-02-12T00:21:10.240Z,8.41
2023-02-12T00:23:39.038Z,8.89
2023-02-12T00:26:10.428Z,8.89
2023-02-12T00:28:37.467Z,8.74
2023-02-12T00:31:09.596Z,8.88
2023-02-12T00:33:36.690Z,8.88
2023-02-12T00:36:04.468Z,8.70
2023-02-12T00:38:31.514Z,8.66
2023-02-12T00:40:58.138Z,8.87
2023-02-12T00:43:26.912Z,8.73
2023-02-12T00:45:53.852Z,8.79
2023-02-12T00:48:23.280Z,8.77
2023-02-12T00:50:52.430Z,8.82
2023-02-12T00:53:19.737Z,8.70
2023-02-12T00:55:46.504Z,8.82
2023-02-12T00:58:18.915Z,8.76
2023-02-12T01:00:45.896Z,8.73
2023-02-12T01:03:14.941Z,8.78
2023-02-12T01:05:44.605Z,8.45
2023-02-12T01:08:13.589Z,8.76
2023-02-12T01:10:40.999Z,8.68
2023-02-12T01:13:07.954Z,8.75
2023-02-12T01:15:34.551Z,8.75
2023-02-12T01:18:01.153Z,8.65
2023-02-12T01:20:27.755Z,8.68
2023-02-12T01:22:54.354Z,8.73
2023-02-12T01:25:21.074Z,8.63
2023-02-12T01:27:48.312Z,8.56
2023-02-12T01:30:16.167Z,8.69
2023-02-12T01:32:45.255Z,8.34
2023-02-12T01:35:14.123Z,8.69
2023-02-12T01:37:40.967Z,8.58
2023-02-12T01:40:09.061Z,8.70
2023-02-12T01:42:35.673Z,8.54
2023-02-12T01:45:14.497Z,8.70
2023-02-12T01:47:43.732Z,8.49
2023-02-12T01:50:17.278Z,8.66
2023-02-12T01:52:48.223Z,8.63
2023-02-12T01:55:15.877Z,8.67
2023-02-12T01:57:45.722Z,8.67
2023-02-12T02:00:15.815Z,8.68
2023-02-12T02:02:48.918Z,8.67
2023-02-12T02:05:23.849Z,8.55
2023-02-12T02:07:50.598Z,8.48
2023-02-12T02:10:17.352Z,8.57
2023-02-12T02:13:02.480Z,8.54
2023-02-12T02:15:33.546Z,8.57
2023-02-12T02:18:17.606Z,8.63
2023-02-12T02:21:02.476Z,8.63
2023-02-12T02:23:48.913Z,8.63
2023-02-12T02:27:06.501Z,8.34
2023-02-12T02:29:48.724Z,8.47
2023-02-12T02:32:35.147Z,8.53
2023-02-12T02:35:15.154Z,8.53
2023-02-12T02:37:54.436Z,8.59
2023-02-12T02:40:23.197Z,8.49
2023-02-12T02:42:58.928Z,8.58
2023-02-12T02:45:33.628Z,8.36
2023-02-12T02:48:12.598Z,8.58
2023-02-12T02:50:48.557Z,8.58
2023-02-12T02:53:24.297Z,8.02
2023-02-12T02:55:54.325Z,8.56
2023-02-12T02:58:25.894Z,8.45
2023-02-12T03:00:58.836Z,8.57
2023-02-12T03:03:52.046Z,8.57
2023-02-12T03:06:45.142Z,8.49
2023-02-12T03:09:20.641Z,8.55
2023-02-12T03:11:50.998Z,8.34
2023-02-12T03:14:26.582Z,8.55
2023-02-12T03:17:34.801Z,8.50
2023-02-12T03:20:13.732Z,8.34
2023-02-12T03:22:48.867Z,8.46
2023-02-12T03:25:20.550Z,8.52
2023-02-12T03:28:19.566Z,8.36
2023-02-12T03:31:02.498Z,8.51
2023-02-12T03:33:37.202Z,8.52
2023-02-12T03:36:31.737Z,8.49
2023-02-12T03:39:07.537Z,8.24
2023-02-12T03:41:49.630Z,8.03
2023-02-12T03:44:27.712Z,8.46
2023-02-12T03:47:26.999Z,8.45
2023-02-12T03:50:31.958Z,8.45
2023-02-12T03:53:00.791Z,8.45
2023-02-12T03:55:27.433Z,8.46
2023-02-12T03:58:00.971Z,8.37
2023-02-12T04:00:31.122Z,8.44
2023-02-12T04:03:00.678Z,8.36
2023-02-12T04:05:30.137Z,8.19
2023-02-12T04:07:58.956Z,8.41
2023-02-12T04:10:48.654Z,8.43
2023-02-12T04:13:21.736Z,8.42
2023-02-12T04:16:06.854Z,8.40
2023-02-12T04:18:45.120Z,8.42
2023-02-12T04:21:33.178Z,8.41
2023-02-12T04:24:16.917Z,8.37
2023-02-12T04:27:02.216Z,8.38
2023-02-12T04:29:49.346Z,8.39
2023-02-12T04:32:38.000Z,8.29
2023-02-12T04:35:16.066Z,8.31
2023-02-12T04:37:50.307Z,8.39
2023-02-12T04:40:19.781Z,8.39
2023-02-12T04:42:53.311Z,8.25
2023-02-12T04:45:29.089Z,8.37
2023-02-12T04:47:55.754Z,8.22
2023-02-12T04:50:22.420Z,8.28
2023-02-12T04:52:49.137Z,7.83
2023-02-12T04:55:16.217Z,8.33
2023-02-12T04:57:42.918Z,8.28
2023-02-12T05:00:12.946Z,8.16
2023-02-12T05:02:39.615Z,8.33
2023-02-12T05:05:11.591Z,8.26
2023-02-12T05:07:40.661Z,8.27
2023-02-12T05:10:10.988Z,8.32
2023-02-12T05:12:37.585Z,8.23
2023-02-12T05:15:06.885Z,8.30
2023-02-12T05:17:33.591Z,8.32
2023-02-12T05:20:00.296Z,8.29
2023-02-12T05:22:27.112Z,8.23
2023-02-12T05:24:56.022Z,8.29
2023-02-12T05:27:22.632Z,8.30
2023-02-12T05:29:49.176Z,8.30
2023-02-12T05:32:15.770Z,8.27
2023-02-12T05:34:42.361Z,8.13
2023-02-12T05:37:14.157Z,8.26
2023-02-12T05:39:43.044Z,8.08
2023-02-12T05:42:11.925Z,8.22
2023-02-12T05:44:38.640Z,8.22
2023-02-12T05:47:05.219Z,8.20
2023-02-12T05:49:31.798Z,8.19
2023-02-12T05:51:58.313Z,8.16
2023-02-12T05:54:24.921Z,8.11
2023-02-12T05:56:51.518Z,8.21
2023-02-12T05:59:22.478Z,8.23
2023-02-12T06:01:51.259Z,8.24
2023-02-12T06:04:20.773Z,8.14
2023-02-12T06:06:50.269Z,8.24
2023-02-12T06:09:16.988Z,8.16
2023-02-12T06:11:43.911Z,8.17
2023-02-12T06:14:16.166Z,8.25
2023-02-12T06:16:49.140Z,8.27
2023-02-12T06:19:16.779Z,8.27
2023-02-12T06:21:46.747Z,8.25
2023-02-12T06:24:15.076Z,8.24
2023-02-12T06:26:44.311Z,8.14
2023-02-12T06:29:11.494Z,8.24
2023-02-12T06:31:38.213Z,8.16
2023-02-12T06:34:12.359Z,8.24
2023-02-12T06:36:41.666Z,8.26
2023-02-12T06:39:08.784Z,8.19
2023-02-12T06:41:35.430Z,8.26
2023-02-12T06:44:04.968Z,8.25
2023-02-12T06:46:32.055Z,8.27
2023-02-12T06:49:00.367Z,8.28
2023-02-12T06:51:29.020Z,8.17
2023-02-12T06:53:56.328Z,8.10
2023-02-12T06:56:24.712Z,7.50
2023-02-12T06:58:56.664Z,8.24
2023-02-12T07:01:26.796Z,8.27
2023-02-12T07:03:56.472Z,7.24
2023-02-12T07:06:24.273Z,8.24
2023-02-12T07:08:51.484Z,8.26
2023-02-12T07:11:18.941Z,8.24
2023-02-12T07:13:45.688Z,8.09
2023-02-12T07:16:16.174Z,8.27
2023-02-12T07:18:44.319Z,8.19
2023-02-12T07:21:13.429Z,8.26
2023-02-12T07:23:40.366Z,8.13
2023-02-12T07:26:11.353Z,8.31
2023-02-12T07:28:38.589Z,8.30
2023-02-12T07:31:11.183Z,6.90
2023-02-12T07:33:38.484Z,8.30
2023-02-12T07:36:10.857Z,8.21
2023-02-12T07:38:40.877Z,8.30
2023-02-12T07:41:13.210Z,8.22
2023-02-12T07:43:41.791Z,8.35
2023-02-12T07:46:17.206Z,7.83
2023-02-12T07:48:45.281Z,8.31
2023-02-12T07:51:19.575Z,8.38
2023-02-12T07:53:46.932Z,8.29
2023-02-12T07:56:14.910Z,8.39
2023-02-12T07:58:42.898Z,8.41
2023-02-12T08:01:19.554Z,8.43
2023-02-12T08:03:50.404Z,8.29
2023-02-12T08:06:23.236Z,8.46
2023-02-12T08:08:58.533Z,8.49
2023-02-12T08:11:26.640Z,8.16
2023-02-12T08:13:53.320Z,8.01
2023-02-12T08:16:27.085Z,8.54
2023-02-12T08:19:14.350Z,8.14
2023-02-12T08:21:43.629Z,8.58
2023-02-12T08:24:10.692Z,8.62
2023-02-12T08:26:38.996Z,8.44
2023-02-12T08:29:11.937Z,8.33
2023-02-12T08:31:41.495Z,8.55
2023-02-12T08:34:17.409Z,8.59
2023-02-12T08:36:44.420Z,8.61
2023-02-12T08:39:11.346Z,8.67
2023-02-12T08:41:38.069Z,8.70
2023-02-12T08:44:05.574Z,8.80
2023-02-12T08:46:36.558Z,8.71
2023-02-12T08:49:09.458Z,8.86
2023-02-12T08:51:38.165Z,8.89
2023-02-12T08:54:07.177Z,8.87
2023-02-12T08:56:34.761Z,8.86
2023-02-12T08:59:04.718Z,8.94
2023-02-12T09:01:33.550Z,8.96
2023-02-12T09:04:03.024Z,8.89
2023-02-12T09:06:32.897Z,8.98
2023-02-12T09:08:59.548Z,9.05
2023-02-12T09:11:30.835Z,9.07
2023-02-12T09:14:05.930Z,9.02
2023-02-12T09:16:34.369Z,9.12
2023-02-12T09:19:02.080Z,8.91
2023-02-12T09:21:32.052Z,9.17
2023-02-12T09:23:58.860Z,9.21
2023-02-12T09:26:28.722Z,9.18
2023-02-12T09:28:55.886Z,9.26
2023-02-12T09:31:26.891Z,9.18
2023-02-12T09:33:55.584Z,9.32
2023-02-12T09:36:22.636Z,9.32
2023-02-12T09:38:51.544Z,9.31
2023-02-12T09:41:40.049Z,9.40
2023-02-12T09:44:47.888Z,9.42
2023-02-12T09:47:23.477Z,9.43
2023-02-12T09:50:18.131Z,9.46
2023-02-12T09:52:47.193Z,9.50
2023-02-12T09:55:20.924Z,9.32
2023-02-12T09:57:47.752Z,9.50
2023-02-12T10:00:31.989Z,9.51
2023-02-12T10:03:05.526Z,9.45
2023-02-12T10:05:41.272Z,9.47
2023-02-12T10:08:23.884Z,9.55
2023-02-12T10:11:18.392Z,9.57
2023-02-12T10:13:59.936Z,9.48
2023-02-12T10:17:01.477Z,9.57
2023-02-12T10:19:37.939Z,9.52
2023-02-12T10:22:04.456Z,9.63
2023-02-12T10:24:49.296Z,9.51
2023-02-12T10:27:24.703Z,9.66
2023-02-12T10:29:53.031Z,9.60
2023-02-12T10:32:25.879Z,9.64
2023-02-12T10:34:53.982Z,9.62
2023-02-12T10:37:25.614Z,9.70
2023-02-12T10:40:01.990Z,9.73
2023-02-12T10:42:45.066Z,9.75
2023-02-12T10:45:17.016Z,9.80
2023-02-12T10:47:46.152Z,9.82
2023-02-12T10:50:45.451Z,9.86
2023-02-12T10:53:18.666Z,9.92
2023-02-12T10:55:45.319Z,9.86
2023-02-12T10:58:24.332Z,9.89
2023-02-12T11:01:01.227Z,9.99
2023-02-12T11:03:34.350Z,10.01
2023-02-12T11:06:25.723Z,10.01
2023-02-12T11:08:53.162Z,10.08
2023-02-12T11:11:26.402Z,10.07
2023-02-12T11:14:16.248Z,10.05
2023-02-12T11:16:53.498Z,10.08
2023-02-12T11:19:25.868Z,10.09
2023-02-12T11:22:04.020Z,10.15
2023-02-12T11:24:30.792Z,10.16
2023-02-12T11:27:22.085Z,10.17
2023-02-12T11:30:10.374Z,10.13
2023-02-12T11:32:37.453Z,10.20
2023-02-12T11:35:25.066Z,10.23
2023-02-12T11:37:57.771Z,10.23
2023-02-12T11:40:28.518Z,10.19
2023-02-12T11:43:05.888Z,10.28
2023-02-12T11:45:44.725Z,10.33
2023-02-12T11:48:24.843Z,10.19
2023-02-12T11:50:55.312Z,10.33
2023-02-12T11:53:35.984Z,10.32
2023-02-12T11:56:06.039Z,10.32
2023-02-12T11:58:32.647Z,10.38
2023-02-12T12:00:59.244Z,10.41
2023-02-12T12:03:34.638Z,10.37
2023-02-12T12:06:27.494Z,10.28
2023-02-12T12:09:05.434Z,10.39
2023-02-12T12:11:59.335Z,10.45
2023-02-12T12:14:34.782Z,10.39
2023-02-12T12:17:38.690Z,10.48
2023-02-12T12:20:20.051Z,10.49
2023-02-12T12:23:16.230Z,10.50
2023-02-12T12:25:59.208Z,10.54
2023-02-12T12:28:44.675Z,10.48
2023-02-12T12:31:32.239Z,10.29
2023-02-12T12:34:25.852Z,10.45
2023-02-12T12:36:58.610Z,10.60
2023-02-12T12:39:40.402Z,10.67
2023-02-12T12:42:32.078Z,10.69
2023-02-12T12:45:36.926Z,10.66
2023-02-12T12:48:29.750Z,10.70
2023-02-12T12:51:12.403Z,10.67
2023-02-12T12:53:39.022Z,10.64
2023-02-12T12:56:18.672Z,10.67
2023-02-12T12:59:19.488Z,10.22
2023-02-12T13:02:17.576Z,10.63
2023-02-12T13:05:03.400Z,10.71
2023-02-12T13:08:07.238Z,10.67
2023-02-12T13:10:46.529Z,10.09
2023-02-12T13:13:35.038Z,10.68
2023-02-12T13:16:27.059Z,10.72
2023-02-12T13:19:12.306Z,10.68
2023-02-12T13:21:57.199Z,10.60
2023-02-12T13:24:35.570Z,10.55
2023-02-12T13:27:16.768Z,10.54
2023-02-12T13:29:51.184Z,10.52
2023-02-12T13:32:24.693Z,10.49
2023-02-12T13:34:57.207Z,10.49
2023-02-12T13:37:46.572Z,10.52
2023-02-12T13:40:30.675Z,10.55
2023-02-12T13:43:15.861Z,10.55
2023-02-12T13:45:48.504Z,10.54
2023-02-12T13:48:17.360Z,10.54
2023-02-12T13:51:01.061Z,10.51
2023-02-12T13:53:53.097Z,10.46
2023-02-12T13:56:37.742Z,10.46
2023-02-12T13:59:04.428Z,10.46
2023-02-12T14:01:47.528Z,10.41
2023-02-12T14:04:28.561Z,10.42
2023-02-12T14:07:07.819Z,10.36
2023-02-12T14:09:45.039Z,10.40
2023-02-12T14:12:14.423Z,10.37
2023-02-12T14:14:49.046Z,10.31
2023-02-12T14:17:30.925Z,10.29
2023-02-12T14:20:22.518Z,10.30
2023-02-12T14:22:49.120Z,10.28
2023-02-12T14:25:24.720Z,10.27
2023-02-12T14:28:18.352Z,10.24
2023-02-12T14:30:45.058Z,10.27
2023-02-12T14:33:21.250Z,10.23
2023-02-12T14:36:09.580Z,10.18
2023-02-12T14:38:47.854Z,10.21
2023-02-12T14:41:40.867Z,10.02
2023-02-12T14:44:30.551Z,10.20
2023-02-12T14:47:06.837Z,10.04
2023-02-12T14:49:38.824Z,10.18
2023-02-12T14:52:12.465Z,10.14
2023-02-12T14:54:53.908Z,10.15
2023-02-12T14:57:49.744Z,10.09
2023-02-12T15:00:29.734Z,10.05
2023-02-12T15:03:19.941Z,10.09
2023-02-12T15:06:09.961Z,10.09
2023-02-12T15:09:00.985Z,10.06
2023-02-12T15:11:36.038Z,10.07
2023-02-12T15:14:24.481Z,10.02
2023-02-12T15:17:25.957Z,9.95
2023-02-12T15:20:02.654Z,9.89
2023-02-12T15:22:40.315Z,9.86
2023-02-12T15:25:24.536Z,9.93
2023-02-12T15:28:01.825Z,9.80
2023-02-12T15:30:36.861Z,9.84
2023-02-12T15:33:06.912Z,9.44
2023-02-12T15:35:39.777Z,9.91
2023-02-12T15:38:08.013Z,9.85
2023-02-12T15:40:35.413Z,9.78
2023-02-12T15:43:04.809Z,9.87
2023-02-12T15:45:36.415Z,9.63
2023-02-12T15:48:15.835Z,9.84
2023-02-12T15:50:51.467Z,9.85
2023-02-12T15:53:18.385Z,9.73
2023-02-12T15:55:50.744Z,9.79
2023-02-12T15:58:24.153Z,9.75
2023-02-12T16:00:55.188Z,9.71
2023-02-12T16:03:24.723Z,9.67
2023-02-12T16:06:03.164Z,9.62
2023-02-12T16:08:34.409Z,9.52
2023-02-12T16:11:13.723Z,9.59
2023-02-12T16:13:59.817Z,9.46
2023-02-12T16:16:50.649Z,9.24
2023-02-12T16:19:33.825Z,9.58
2023-02-12T16:22:08.535Z,9.60
2023-02-12T16:24:39.451Z,9.43
2023-02-12T16:27:17.331Z,9.06
2023-02-12T16:29:46.790Z,9.55
2023-02-12T16:32:43.137Z,9.54
2023-02-12T16:35:09.655Z,9.51
2023-02-12T16:37:36.120Z,9.49
2023-02-12T16:40:17.566Z,9.49
2023-02-12T16:42:47.269Z,9.47
2023-02-12T16:45:28.876Z,9.46
2023-02-12T16:48:15.083Z,9.42
2023-02-12T16:50:59.437Z,8.99
2023-02-12T16:53:26.022Z,8.90
2023-02-12T16:55:52.759Z,9.22
2023-02-12T16:58:19.277Z,9.22
2023-02-12T17:00:46.077Z,9.29
2023-02-12T17:03:14.258Z,9.29
2023-02-12T17:05:45.121Z,9.31
2023-02-12T17:08:16.524Z,8.89
2023-02-12T17:10:45.674Z,9.17
2023-02-12T17:13:12.312Z,9.21
2023-02-12T17:15:45.591Z,9.30
2023-02-12T17:18:12.429Z,9.30
2023-02-12T17:20:41.207Z,8.90
2023-02-12T17:23:10.120Z,9.26
2023-02-12T17:25:39.050Z,9.14
2023-02-12T17:28:05.964Z,9.19
2023-02-12T17:30:32.994Z,9.26
2023-02-12T17:32:59.642Z,9.24
2023-02-12T17:35:26.724Z,9.24
2023-02-12T17:37:53.274Z,9.23
2023-02-12T17:40:19.968Z,9.22
2023-02-12T17:42:46.578Z,9.19
2023-02-12T17:45:13.150Z,9.16
2023-02-12T17:47:40.106Z,9.15
2023-02-12T17:50:12.357Z,9.11
2023-02-12T17:52:38.967Z,9.11
2023-02-12T17:55:06.845Z,9.09
2023-02-12T17:57:33.489Z,9.12
2023-02-12T18:00:00.055Z,9.09
2023-02-12T18:02:26.825Z,9.09
2023-02-12T18:04:53.550Z,8.77
2023-02-12T18:07:22.271Z,9.06
2023-02-12T18:09:48.969Z,9.05
2023-02-12T18:12:18.705Z,8.94
2023-02-12T18:14:47.824Z,8.92
2023-02-12T18:17:14.477Z,8.91
2023-02-12T18:19:41.117Z,8.94
2023-02-12T18:22:07.732Z,8.93
2023-02-12T18:24:35.108Z,8.86
2023-02-12T18:27:04.142Z,8.90
2023-02-12T18:29:33.061Z,8.75
2023-02-12T18:32:01.979Z,8.86
2023-02-12T18:34:28.621Z,8.86
2023-02-12T18:36:55.294Z,8.88
2023-02-12T18:39:21.868Z,8.75
2023-02-12T18:41:48.536Z,8.88
2023-02-12T18:44:15.693Z,8.88
2023-02-12T18:46:44.715Z,8.86
2023-02-12T18:49:12.423Z,8.37
2023-02-12T18:51:43.792Z,8.86
2023-02-12T18:54:14.424Z,8.86
2023-02-12T18:56:44.071Z,8.85
2023-02-12T18:59:19.435Z,8.81
2023-02-12T19:01:47.411Z,8.83
2023-02-12T19:04:16.165Z,8.84
2023-02-12T19:06:48.198Z,8.81
2023-02-12T19:09:16.743Z,8.45
2023-02-12T19:11:46.591Z,8.77
2023-02-12T19:14:14.835Z,8.78
2023-02-12T19:16:42.133Z,8.77
2023-02-12T19:19:09.157Z,8.76
2023-02-12T19:21:35.816Z,8.73
2023-02-12T19:24:05.087Z,8.61
2023-02-12T19:26:34.402Z,8.50
2023-02-12T19:29:01.688Z,8.74
2023-02-12T19:31:48.332Z,8.70
2023-02-12T19:34:21.503Z,8.73
2023-02-12T19:36:49.722Z,8.72
2023-02-12T19:39:19.548Z,8.71
2023-02-12T19:41:47.089Z,8.66
2023-02-12T19:44:18.901Z,8.58
2023-02-12T19:46:48.922Z,8.70
2023-02-12T19:49:22.202Z,8.71
2023-02-12T19:51:49.664Z,8.70
2023-02-12T19:54:17.780Z,8.71
2023-02-12T19:56:45.055Z,8.70
2023-02-12T19:59:14.666Z,8.59
2023-02-12T20:01:41.449Z,8.70
2023-02-12T20:04:08.121Z,8.56
2023-02-12T20:06:37.026Z,8.68
2023-02-12T20:09:07.343Z,8.56
2023-02-12T20:11:38.382Z,8.67
2023-02-12T20:14:07.748Z,8.63
2023-02-12T20:16:38.074Z,8.64
2023-02-12T20:19:11.193Z,8.58
2023-02-12T20:21:38.574Z,8.65
2023-02-12T20:24:05.389Z,8.66
2023-02-12T20:26:34.656Z,8.55
2023-02-12T20:29:03.990Z,8.64
2023-02-12T20:31:33.920Z,7.49
2023-02-12T20:34:05.852Z,8.64
2023-02-12T20:36:37.848Z,8.60
2023-02-12T20:39:05.711Z,8.62
2023-02-12T20:41:37.035Z,8.41
2023-02-12T20:44:05.928Z,8.58
2023-02-12T20:46:33.001Z,8.57
2023-02-12T20:48:59.566Z,8.56
2023-02-12T20:51:29.040Z,8.57
2023-02-12T20:53:56.089Z,8.48
2023-02-12T20:56:25.740Z,8.57
2023-02-12T20:58:53.580Z,8.45
2023-02-12T21:01:48.115Z,8.48
2023-02-12T21:04:17.131Z,8.20
2023-02-12T21:06:48.387Z,8.36
2023-02-12T21:09:15.434Z,8.40
2023-02-12T21:11:45.238Z,7.93
2023-02-12T21:14:21.933Z,8.51
2023-02-12T21:16:52.487Z,8.51
2023-02-12T21:19:19.805Z,8.41
2023-02-12T21:21:49.111Z,8.40
2023-02-12T21:24:21.763Z,8.35
2023-02-12T21:26:52.205Z,8.47
2023-02-12T21:29:19.764Z,7.35
2023-02-12T21:31:50.476Z,8.47
2023-02-12T21:34:23.018Z,8.42
2023-02-12T21:36:54.241Z,8.46
2023-02-12T21:39:27.521Z,8.45
2023-02-12T21:42:00.187Z,8.31
2023-02-12T21:44:27.492Z,8.39
2023-02-12T21:46:54.990Z,8.32
2023-02-12T21:49:28.235Z,8.43
2023-02-12T21:52:02.732Z,8.37
2023-02-12T21:54:32.291Z,8.40
2023-02-12T21:57:01.764Z,7.97
2023-02-12T21:59:33.840Z,8.38
2023-02-12T22:02:00.761Z,8.41
2023-02-12T22:04:28.040Z,8.42
2023-02-12T22:06:54.812Z,8.40
2023-02-12T22:09:22.613Z,8.43
2023-02-12T22:11:52.577Z,8.40
2023-02-12T22:14:20.952Z,8.40
2023-02-12T22:16:50.214Z,8.27
2023-02-12T22:19:16.851Z,8.39
2023-02-12T22:21:44.508Z,8.04
2023-02-12T22:24:14.066Z,8.42
2023-02-12T22:26:44.376Z,8.41
2023-02-12T22:29:13.132Z,8.28
2023-02-12T22:31:42.428Z,8.40
2023-02-12T22:34:18.629Z,8.40
2023-02-12T22:36:45.696Z,8.33
2023-02-12T22:39:13.763Z,8.10
2023-02-12T22:41:42.048Z,8.34
2023-02-12T22:44:13.438Z,8.31
2023-02-12T22:46:44.129Z,8.30
2023-02-12T22:49:10.844Z,8.30
2023-02-12T22:51:39.599Z,8.15
2023-02-12T22:54:07.868Z,8.15
2023-02-12T22:56:34.440Z,8.27
2023-02-12T22:59:02.141Z,8.14
2023-02-12T23:01:32.876Z,8.28
2023-02-12T23:03:59.685Z,8.23
2023-02-12T23:06:29.530Z,8.23
2023-02-12T23:09:01.608Z,8.26
2023-02-12T23:11:30.065Z,8.13
2023-02-12T23:14:00.023Z,8.26
2023-02-12T23:16:26.792Z,8.25
2023-02-12T23:19:02.892Z,8.24
2023-02-12T23:21:33.725Z,8.15
2023-02-12T23:24:00.463Z,8.18
2023-02-12T23:26:28.754Z,8.26
2023-02-12T23:28:55.981Z,8.15
2023-02-12T23:31:23.038Z,8.24
2023-02-12T23:33:49.679Z,8.21
2023-02-12T23:36:16.526Z,8.26
2023-02-12T23:38:43.199Z,8.05
2023-02-12T23:41:10.111Z,7.80
2023-02-12T23:43:39.186Z,8.24
2023-02-12T23:46:09.388Z,8.24
2023-02-12T23:48:36.118Z,8.29
2023-02-12T23:51:05.468Z,8.28
2023-02-12T23:53:34.355Z,7.97
2023-02-12T23:56:01.100Z,8.25
2023-02-12T23:58:30.213Z,8.20
